sensor_id;sensor_type;location;lat;lon;timestamp;P1;durP1;ratioP1;P2;durP2;ratioP2
38479;SDS011;62333;51.980;5.934;2023-07-31T00:01:24;1.38;;;0.20;;
38479;SDS011;62333;51.980;5.934;2023-07-31T00:03:49;0.82;;;0.40;;
38479;SDS011;62333;51.980;5.934;2023-07-31T00:06:15;0.80;;;0.30;;
38479;SDS011;62333;51.980;5.934;2023-07-31T00:08:40;0.88;;;0.20;;
38479;SDS011;62333;51.980;5.934;2023-07-31T00:11:06;0.77;;;0.20;;
38479;SDS011;62333;51.980;5.934;2023-07-31T00:13:32;1.27;;;0.30;;
38479;SDS011;62333;51.980;5.934;2023-07-31T00:15:58;0.57;;;0.20;;
38479;SDS011;62333;51.980;5.934;2023-07-31T00:18:24;1.20;;;0.40;;
38479;SDS011;62333;51.980;5.934;2023-07-31T00:20:50;0.80;;;0.40;;
38479;SDS011;62333;51.980;5.934;2023-07-31T00:23:15;1.27;;;0.40;;
38479;SDS011;62333;51.980;5.934;2023-07-31T00:25:41;0.73;;;0.28;;
38479;SDS011;62333;51.980;5.934;2023-07-31T00:28:07;0.70;;;0.20;;
38479;SDS011;62333;51.980;5.934;2023-07-31T00:30:32;0.50;;;0.22;;
38479;SDS011;62333;51.980;5.934;2023-07-31T00:32:58;0.88;;;0.52;;
38479;SDS011;62333;51.980;5.934;2023-07-31T00:35:24;0.77;;;0.35;;
38479;SDS011;62333;51.980;5.934;2023-07-31T00:37:49;1.38;;;0.30;;
38479;SDS011;62333;51.980;5.934;2023-07-31T00:40:15;1.00;;;0.40;;
38479;SDS011;62333;51.980;5.934;2023-07-31T00:42:41;1.05;;;0.40;;
38479;SDS011;62333;51.980;5.934;2023-07-31T00:45:06;1.27;;;0.40;;
38479;SDS011;62333;51.980;5.934;2023-07-31T00:47:32;2.13;;;0.30;;
38479;SDS011;62333;51.980;5.934;2023-07-31T00:49:58;2.95;;;0.95;;
38479;SDS011;62333;51.980;5.934;2023-07-31T00:52:24;2.17;;;0.63;;
38479;SDS011;62333;51.980;5.934;2023-07-31T00:54:49;3.13;;;1.30;;
38479;SDS011;62333;51.980;5.934;2023-07-31T00:57:15;4.65;;;1.60;;
38479;SDS011;62333;51.980;5.934;2023-07-31T00:59:41;8.77;;;4.03;;
38479;SDS011;62333;51.980;5.934;2023-07-31T01:02:07;11.10;;;5.47;;
38479;SDS011;62333;51.980;5.934;2023-07-31T01:04:32;6.50;;;2.45;;
38479;SDS011;62333;51.980;5.934;2023-07-31T01:07:03;17.08;;;7.50;;
38479;SDS011;62333;51.980;5.934;2023-07-31T01:09:55;8.88;;;3.40;;
38479;SDS011;62333;51.980;5.934;2023-07-31T01:12:29;19.25;;;7.00;;
38479;SDS011;62333;51.980;5.934;2023-07-31T01:15:06;15.43;;;6.15;;
38479;SDS011;62333;51.980;5.934;2023-07-31T01:17:41;16.75;;;6.70;;
38479;SDS011;62333;51.980;5.934;2023-07-31T01:20:15;18.17;;;7.20;;
38479;SDS011;62333;51.980;5.934;2023-07-31T01:28:03;17.95;;;6.82;;
38479;SDS011;62333;51.980;5.934;2023-07-31T01:30:32;16.23;;;6.45;;
38479;SDS011;62333;51.980;5.934;2023-07-31T01:33:00;12.02;;;5.95;;
38479;SDS011;62333;51.980;5.934;2023-07-31T01:35:31;16.90;;;7.85;;
38479;SDS011;62333;51.980;5.934;2023-07-31T01:38:01;15.30;;;5.03;;
38479;SDS011;62333;51.980;5.934;2023-07-31T01:40:26;13.45;;;6.90;;
38479;SDS011;62333;51.980;5.934;2023-07-31T01:42:52;25.02;;;8.02;;
38479;SDS011;62333;51.980;5.934;2023-07-31T01:45:18;23.05;;;9.05;;
38479;SDS011;62333;51.980;5.934;2023-07-31T01:47:43;15.25;;;7.60;;
38479;SDS011;62333;51.980;5.934;2023-07-31T01:50:09;14.27;;;6.10;;
38479;SDS011;62333;51.980;5.934;2023-07-31T01:52:35;19.10;;;7.10;;
38479;SDS011;62333;51.980;5.934;2023-07-31T01:55:00;14.15;;;5.95;;
38479;SDS011;62333;51.980;5.934;2023-07-31T01:57:26;22.73;;;7.45;;
38479;SDS011;62333;51.980;5.934;2023-07-31T01:59:52;18.25;;;6.32;;
38479;SDS011;62333;51.980;5.934;2023-07-31T02:02:18;17.05;;;6.63;;
38479;SDS011;62333;51.980;5.934;2023-07-31T02:04:44;12.45;;;6.55;;
38479;SDS011;62333;51.980;5.934;2023-07-31T02:07:10;24.58;;;8.55;;
38479;SDS011;62333;51.980;5.934;2023-07-31T02:09:36;23.17;;;7.18;;
38479;SDS011;62333;51.980;5.934;2023-07-31T02:12:01;17.92;;;6.68;;
38479;SDS011;62333;51.980;5.934;2023-07-31T02:14:27;14.82;;;6.55;;
38479;SDS011;62333;51.980;5.934;2023-07-31T02:16:53;12.90;;;4.80;;
38479;SDS011;62333;51.980;5.934;2023-07-31T02:19:18;21.77;;;5.13;;
38479;SDS011;62333;51.980;5.934;2023-07-31T02:21:44;10.73;;;5.53;;
38479;SDS011;62333;51.980;5.934;2023-07-31T02:24:10;9.80;;;3.92;;
38479;SDS011;62333;51.980;5.934;2023-07-31T02:26:35;13.57;;;4.32;;
38479;SDS011;62333;51.980;5.934;2023-07-31T02:29:01;12.45;;;6.00;;
38479;SDS011;62333;51.980;5.934;2023-07-31T02:31:27;11.95;;;5.13;;
38479;SDS011;62333;51.980;5.934;2023-07-31T02:33:52;11.50;;;5.35;;
38479;SDS011;62333;51.980;5.934;2023-07-31T02:36:18;14.65;;;6.00;;
38479;SDS011;62333;51.980;5.934;2023-07-31T02:38:44;9.93;;;3.40;;
38479;SDS011;62333;51.980;5.934;2023-07-31T02:41:09;12.10;;;4.25;;
38479;SDS011;62333;51.980;5.934;2023-07-31T02:43:35;9.85;;;4.40;;
38479;SDS011;62333;51.980;5.934;2023-07-31T02:46:01;9.07;;;3.65;;
38479;SDS011;62333;51.980;5.934;2023-07-31T02:48:26;8.60;;;3.70;;
38479;SDS011;62333;51.980;5.934;2023-07-31T02:50:53;11.88;;;4.95;;
38479;SDS011;62333;51.980;5.934;2023-07-31T02:53:18;11.63;;;4.43;;
38479;SDS011;62333;51.980;5.934;2023-07-31T02:55:44;12.35;;;4.18;;
38479;SDS011;62333;51.980;5.934;2023-07-31T02:58:10;10.98;;;4.93;;
38479;SDS011;62333;51.980;5.934;2023-07-31T03:00:35;12.35;;;5.15;;
38479;SDS011;62333;51.980;5.934;2023-07-31T03:03:01;6.22;;;2.75;;
38479;SDS011;62333;51.980;5.934;2023-07-31T03:05:26;6.90;;;3.28;;
38479;SDS011;62333;51.980;5.934;2023-07-31T03:07:52;15.95;;;6.00;;
38479;SDS011;62333;51.980;5.934;2023-07-31T03:10:18;11.63;;;4.80;;
38479;SDS011;62333;51.980;5.934;2023-07-31T03:12:46;13.85;;;6.40;;
38479;SDS011;62333;51.980;5.934;2023-07-31T03:15:13;17.67;;;6.25;;
38479;SDS011;62333;51.980;5.934;2023-07-31T03:17:38;19.20;;;7.70;;
38479;SDS011;62333;51.980;5.934;2023-07-31T03:20:04;13.57;;;6.05;;
38479;SDS011;62333;51.980;5.934;2023-07-31T03:22:30;13.57;;;5.22;;
38479;SDS011;62333;51.980;5.934;2023-07-31T03:24:56;15.23;;;5.90;;
38479;SDS011;62333;51.980;5.934;2023-07-31T03:27:21;15.13;;;5.70;;
38479;SDS011;62333;51.980;5.934;2023-07-31T03:29:47;12.13;;;5.28;;
38479;SDS011;62333;51.980;5.934;2023-07-31T03:32:14;15.85;;;7.05;;
38479;SDS011;62333;51.980;5.934;2023-07-31T03:34:40;12.90;;;6.50;;
38479;SDS011;62333;51.980;5.934;2023-07-31T03:37:06;17.83;;;6.85;;
38479;SDS011;62333;51.980;5.934;2023-07-31T03:39:31;16.13;;;6.72;;
38479;SDS011;62333;51.980;5.934;2023-07-31T03:41:57;14.43;;;6.22;;
38479;SDS011;62333;51.980;5.934;2023-07-31T03:44:22;13.75;;;4.88;;
38479;SDS011;62333;51.980;5.934;2023-07-31T03:46:48;14.35;;;5.70;;
38479;SDS011;62333;51.980;5.934;2023-07-31T03:49:14;12.27;;;5.63;;
38479;SDS011;62333;51.980;5.934;2023-07-31T03:51:39;16.35;;;5.65;;
38479;SDS011;62333;51.980;5.934;2023-07-31T03:54:06;17.73;;;5.75;;
38479;SDS011;62333;51.980;5.934;2023-07-31T03:56:32;15.35;;;5.50;;
38479;SDS011;62333;51.980;5.934;2023-07-31T03:58:58;10.20;;;5.50;;
38479;SDS011;62333;51.980;5.934;2023-07-31T04:01:24;9.77;;;4.63;;
38479;SDS011;62333;51.980;5.934;2023-07-31T04:03:51;10.88;;;4.30;;
38479;SDS011;62333;51.980;5.934;2023-07-31T04:06:17;15.35;;;4.50;;
38479;SDS011;62333;51.980;5.934;2023-07-31T04:08:45;17.15;;;5.45;;
38479;SDS011;62333;51.980;5.934;2023-07-31T04:11:11;14.85;;;4.22;;
38479;SDS011;62333;51.980;5.934;2023-07-31T04:13:37;12.23;;;4.55;;
38479;SDS011;62333;51.980;5.934;2023-07-31T04:16:04;7.68;;;3.97;;
38479;SDS011;62333;51.980;5.934;2023-07-31T04:18:30;12.35;;;4.43;;
38479;SDS011;62333;51.980;5.934;2023-07-31T04:20:57;15.52;;;6.35;;
38479;SDS011;62333;51.980;5.934;2023-07-31T04:23:24;20.05;;;5.85;;
38479;SDS011;62333;51.980;5.934;2023-07-31T04:25:50;14.93;;;5.82;;
38479;SDS011;62333;51.980;5.934;2023-07-31T04:28:16;12.52;;;4.50;;
38479;SDS011;62333;51.980;5.934;2023-07-31T04:30:41;13.07;;;6.18;;
38479;SDS011;62333;51.980;5.934;2023-07-31T04:33:07;7.40;;;3.40;;
38479;SDS011;62333;51.980;5.934;2023-07-31T04:35:33;9.32;;;3.25;;
38479;SDS011;62333;51.980;5.934;2023-07-31T04:37:59;11.95;;;4.65;;
38479;SDS011;62333;51.980;5.934;2023-07-31T04:40:24;10.45;;;4.43;;
38479;SDS011;62333;51.980;5.934;2023-07-31T04:42:50;14.63;;;5.55;;
38479;SDS011;62333;51.980;5.934;2023-07-31T04:45:16;12.15;;;4.03;;
38479;SDS011;62333;51.980;5.934;2023-07-31T04:47:42;10.80;;;4.53;;
38479;SDS011;62333;51.980;5.934;2023-07-31T04:50:08;14.25;;;4.82;;
38479;SDS011;62333;51.980;5.934;2023-07-31T04:52:34;15.10;;;5.13;;
38479;SDS011;62333;51.980;5.934;2023-07-31T04:54:59;14.15;;;4.85;;
38479;SDS011;62333;51.980;5.934;2023-07-31T04:57:25;13.70;;;4.82;;
38479;SDS011;62333;51.980;5.934;2023-07-31T04:59:50;18.58;;;5.43;;
38479;SDS011;62333;51.980;5.934;2023-07-31T05:02:16;14.02;;;4.97;;
38479;SDS011;62333;51.980;5.934;2023-07-31T05:04:42;11.93;;;5.88;;
38479;SDS011;62333;51.980;5.934;2023-07-31T05:07:07;15.50;;;3.90;;
38479;SDS011;62333;51.980;5.934;2023-07-31T05:09:33;15.40;;;5.13;;
38479;SDS011;62333;51.980;5.934;2023-07-31T05:11:59;11.18;;;5.45;;
38479;SDS011;62333;51.980;5.934;2023-07-31T05:14:25;8.57;;;4.05;;
38479;SDS011;62333;51.980;5.934;2023-07-31T05:16:51;17.30;;;6.55;;
38479;SDS011;62333;51.980;5.934;2023-07-31T05:19:17;17.60;;;5.95;;
38479;SDS011;62333;51.980;5.934;2023-07-31T05:21:43;10.38;;;4.68;;
38479;SDS011;62333;51.980;5.934;2023-07-31T05:24:09;10.48;;;4.25;;
38479;SDS011;62333;51.980;5.934;2023-07-31T05:26:35;10.55;;;3.47;;
38479;SDS011;62333;51.980;5.934;2023-07-31T05:29:01;13.30;;;5.18;;
38479;SDS011;62333;51.980;5.934;2023-07-31T05:31:27;11.77;;;4.63;;
38479;SDS011;62333;51.980;5.934;2023-07-31T05:33:53;13.85;;;3.85;;
38479;SDS011;62333;51.980;5.934;2023-07-31T05:36:18;10.98;;;4.18;;
38479;SDS011;62333;51.980;5.934;2023-07-31T05:38:44;11.48;;;4.72;;
38479;SDS011;62333;51.980;5.934;2023-07-31T05:41:11;11.05;;;4.07;;
38479;SDS011;62333;51.980;5.934;2023-07-31T05:43:37;8.60;;;3.95;;
38479;SDS011;62333;51.980;5.934;2023-07-31T05:46:03;9.73;;;3.92;;
38479;SDS011;62333;51.980;5.934;2023-07-31T05:48:28;8.82;;;3.33;;
38479;SDS011;62333;51.980;5.934;2023-07-31T05:50:54;5.53;;;2.97;;
38479;SDS011;62333;51.980;5.934;2023-07-31T05:53:20;9.80;;;3.47;;
38479;SDS011;62333;51.980;5.934;2023-07-31T05:55:46;10.82;;;4.80;;
38479;SDS011;62333;51.980;5.934;2023-07-31T05:58:11;13.50;;;4.88;;
38479;SDS011;62333;51.980;5.934;2023-07-31T06:00:37;14.20;;;3.55;;
38479;SDS011;62333;51.980;5.934;2023-07-31T06:03:03;8.35;;;3.08;;
38479;SDS011;62333;51.980;5.934;2023-07-31T06:05:29;13.30;;;4.35;;
38479;SDS011;62333;51.980;5.934;2023-07-31T06:07:55;11.60;;;3.78;;
38479;SDS011;62333;51.980;5.934;2023-07-31T06:10:21;9.25;;;3.03;;
38479;SDS011;62333;51.980;5.934;2023-07-31T06:12:46;9.35;;;4.82;;
38479;SDS011;62333;51.980;5.934;2023-07-31T06:15:12;14.57;;;5.20;;
38479;SDS011;62333;51.980;5.934;2023-07-31T06:17:38;9.43;;;3.70;;
38479;SDS011;62333;51.980;5.934;2023-07-31T06:20:03;7.80;;;2.75;;
38479;SDS011;62333;51.980;5.934;2023-07-31T06:22:31;6.63;;;3.45;;
38479;SDS011;62333;51.980;5.934;2023-07-31T06:24:56;9.43;;;2.83;;
38479;SDS011;62333;51.980;5.934;2023-07-31T06:27:23;6.57;;;3.05;;
38479;SDS011;62333;51.980;5.934;2023-07-31T06:29:48;6.72;;;3.65;;
38479;SDS011;62333;51.980;5.934;2023-07-31T06:32:14;4.45;;;2.38;;
38479;SDS011;62333;51.980;5.934;2023-07-31T06:34:40;6.38;;;2.60;;
38479;SDS011;62333;51.980;5.934;2023-07-31T06:37:08;6.32;;;1.88;;
38479;SDS011;62333;51.980;5.934;2023-07-31T06:39:33;5.80;;;2.38;;
38479;SDS011;62333;51.980;5.934;2023-07-31T06:41:59;6.03;;;2.78;;
38479;SDS011;62333;51.980;5.934;2023-07-31T06:44:25;9.57;;;3.63;;
38479;SDS011;62333;51.980;5.934;2023-07-31T06:46:50;8.23;;;3.88;;
38479;SDS011;62333;51.980;5.934;2023-07-31T06:49:16;5.65;;;1.48;;
38479;SDS011;62333;51.980;5.934;2023-07-31T06:51:42;6.63;;;3.15;;
38479;SDS011;62333;51.980;5.934;2023-07-31T06:54:09;5.60;;;1.77;;
38479;SDS011;62333;51.980;5.934;2023-07-31T06:56:34;4.63;;;2.08;;
38479;SDS011;62333;51.980;5.934;2023-07-31T06:59:00;4.45;;;1.70;;
38479;SDS011;62333;51.980;5.934;2023-07-31T07:01:26;5.72;;;2.10;;
38479;SDS011;62333;51.980;5.934;2023-07-31T07:03:53;6.93;;;1.95;;
38479;SDS011;62333;51.980;5.934;2023-07-31T07:06:19;4.78;;;1.77;;
38479;SDS011;62333;51.980;5.934;2023-07-31T07:08:45;8.38;;;3.03;;
38479;SDS011;62333;51.980;5.934;2023-07-31T07:11:11;4.85;;;1.75;;
38479;SDS011;62333;51.980;5.934;2023-07-31T07:13:36;3.80;;;1.42;;
38479;SDS011;62333;51.980;5.934;2023-07-31T07:16:02;4.90;;;0.95;;
38479;SDS011;62333;51.980;5.934;2023-07-31T07:18:27;4.80;;;1.98;;
38479;SDS011;62333;51.980;5.934;2023-07-31T07:20:53;3.63;;;0.93;;
38479;SDS011;62333;51.980;5.934;2023-07-31T07:23:20;8.77;;;1.15;;
38479;SDS011;62333;51.980;5.934;2023-07-31T07:25:46;2.17;;;0.50;;
38479;SDS011;62333;51.980;5.934;2023-07-31T07:28:12;1.50;;;0.45;;
38479;SDS011;62333;51.980;5.934;2023-07-31T07:30:38;3.15;;;0.80;;
38479;SDS011;62333;51.980;5.934;2023-07-31T07:33:04;1.92;;;0.65;;
38479;SDS011;62333;51.980;5.934;2023-07-31T07:35:32;5.25;;;1.08;;
38479;SDS011;62333;51.980;5.934;2023-07-31T07:37:59;2.47;;;0.75;;
38479;SDS011;62333;51.980;5.934;2023-07-31T07:40:25;2.17;;;0.70;;
38479;SDS011;62333;51.980;5.934;2023-07-31T07:42:51;1.45;;;0.50;;
38479;SDS011;62333;51.980;5.934;2023-07-31T07:45:17;0.73;;;0.30;;
38479;SDS011;62333;51.980;5.934;2023-07-31T07:47:42;1.13;;;0.32;;
38479;SDS011;62333;51.980;5.934;2023-07-31T07:50:08;3.40;;;0.73;;
38479;SDS011;62333;51.980;5.934;2023-07-31T07:52:34;1.13;;;0.40;;
38479;SDS011;62333;51.980;5.934;2023-07-31T07:55:00;1.98;;;0.50;;
38479;SDS011;62333;51.980;5.934;2023-07-31T07:57:26;0.40;;;0.20;;
38479;SDS011;62333;51.980;5.934;2023-07-31T07:59:52;0.68;;;0.40;;
38479;SDS011;62333;51.980;5.934;2023-07-31T08:02:17;0.77;;;0.22;;
38479;SDS011;62333;51.980;5.934;2023-07-31T08:04:43;0.73;;;0.30;;
38479;SDS011;62333;51.980;5.934;2023-07-31T08:07:12;1.67;;;0.47;;
38479;SDS011;62333;51.980;5.934;2023-07-31T08:09:37;1.38;;;0.43;;
38479;SDS011;62333;51.980;5.934;2023-07-31T08:12:03;1.45;;;0.65;;
38479;SDS011;62333;51.980;5.934;2023-07-31T08:14:30;1.50;;;0.60;;
38479;SDS011;62333;51.980;5.934;2023-07-31T08:16:56;0.80;;;0.38;;
38479;SDS011;62333;51.980;5.934;2023-07-31T08:19:22;0.93;;;0.20;;
38479;SDS011;62333;51.980;5.934;2023-07-31T08:21:47;2.50;;;0.77;;
38479;SDS011;62333;51.980;5.934;2023-07-31T08:24:13;1.30;;;0.55;;
38479;SDS011;62333;51.980;5.934;2023-07-31T08:26:39;1.42;;;0.40;;
38479;SDS011;62333;51.980;5.934;2023-07-31T08:29:05;0.70;;;0.38;;
38479;SDS011;62333;51.980;5.934;2023-07-31T08:31:30;0.90;;;0.40;;
38479;SDS011;62333;51.980;5.934;2023-07-31T08:33:56;3.10;;;0.73;;
38479;SDS011;62333;51.980;5.934;2023-07-31T08:36:22;2.03;;;0.95;;
38479;SDS011;62333;51.980;5.934;2023-07-31T08:38:47;2.42;;;1.13;;
38479;SDS011;62333;51.980;5.934;2023-07-31T08:41:14;2.65;;;0.80;;
38479;SDS011;62333;51.980;5.934;2023-07-31T08:43:42;3.78;;;0.90;;
38479;SDS011;62333;51.980;5.934;2023-07-31T08:46:10;4.35;;;0.75;;
38479;SDS011;62333;51.980;5.934;2023-07-31T08:48:36;1.75;;;0.70;;
38479;SDS011;62333;51.980;5.934;2023-07-31T08:51:03;2.20;;;0.80;;
38479;SDS011;62333;51.980;5.934;2023-07-31T08:53:29;2.00;;;0.82;;
38479;SDS011;62333;51.980;5.934;2023-07-31T08:55:55;2.15;;;0.77;;
38479;SDS011;62333;51.980;5.934;2023-07-31T08:58:23;4.20;;;0.80;;
38479;SDS011;62333;51.980;5.934;2023-07-31T09:00:50;1.40;;;0.70;;
38479;SDS011;62333;51.980;5.934;2023-07-31T09:03:17;1.80;;;0.60;;
38479;SDS011;62333;51.980;5.934;2023-07-31T09:05:45;2.22;;;1.02;;
38479;SDS011;62333;51.980;5.934;2023-07-31T09:08:12;2.33;;;0.95;;
38479;SDS011;62333;51.980;5.934;2023-07-31T09:10:43;3.88;;;1.05;;
38479;SDS011;62333;51.980;5.934;2023-07-31T09:13:16;1.50;;;0.80;;
38479;SDS011;62333;51.980;5.934;2023-07-31T09:15:43;1.00;;;0.60;;
38479;SDS011;62333;51.980;5.934;2023-07-31T09:18:10;2.67;;;1.08;;
38479;SDS011;62333;51.980;5.934;2023-07-31T09:20:36;2.53;;;0.98;;
38479;SDS011;62333;51.980;5.934;2023-07-31T09:25:35;2.40;;;0.95;;
38479;SDS011;62333;51.980;5.934;2023-07-31T09:28:02;2.47;;;0.93;;
38479;SDS011;62333;51.980;5.934;2023-07-31T09:30:30;3.22;;;1.35;;
38479;SDS011;62333;51.980;5.934;2023-07-31T09:33:05;3.08;;;1.20;;
38479;SDS011;62333;51.980;5.934;2023-07-31T09:35:34;3.15;;;1.48;;
38479;SDS011;62333;51.980;5.934;2023-07-31T09:38:01;3.83;;;2.15;;
38479;SDS011;62333;51.980;5.934;2023-07-31T09:40:33;2.53;;;1.98;;
38479;SDS011;62333;51.980;5.934;2023-07-31T09:43:04;3.20;;;2.15;;
38479;SDS011;62333;51.980;5.934;2023-07-31T09:45:38;4.30;;;2.45;;
38479;SDS011;62333;51.980;5.934;2023-07-31T09:48:08;6.03;;;3.08;;
38479;SDS011;62333;51.980;5.934;2023-07-31T09:50:42;3.38;;;2.78;;
38479;SDS011;62333;51.980;5.934;2023-07-31T09:53:12;3.28;;;2.13;;
38479;SDS011;62333;51.980;5.934;2023-07-31T09:55:39;2.95;;;2.13;;
38479;SDS011;62333;51.980;5.934;2023-07-31T09:58:07;4.22;;;3.15;;
38479;SDS011;62333;51.980;5.934;2023-07-31T10:00:36;6.00;;;2.55;;
38479;SDS011;62333;51.980;5.934;2023-07-31T10:03:09;5.30;;;3.22;;
38479;SDS011;62333;51.980;5.934;2023-07-31T10:05:36;4.78;;;2.55;;
38479;SDS011;62333;51.980;5.934;2023-07-31T10:10:35;8.43;;;4.22;;
38479;SDS011;62333;51.980;5.934;2023-07-31T10:13:02;5.75;;;3.83;;
38479;SDS011;62333;51.980;5.934;2023-07-31T10:15:29;7.97;;;3.42;;
38479;SDS011;62333;51.980;5.934;2023-07-31T10:17:55;4.90;;;3.15;;
38479;SDS011;62333;51.980;5.934;2023-07-31T10:20:22;5.78;;;3.80;;
38479;SDS011;62333;51.980;5.934;2023-07-31T10:22:49;4.85;;;3.05;;
38479;SDS011;62333;51.980;5.934;2023-07-31T10:25:16;6.13;;;3.28;;
38479;SDS011;62333;51.980;5.934;2023-07-31T10:27:44;5.68;;;4.03;;
38479;SDS011;62333;51.980;5.934;2023-07-31T10:30:13;5.50;;;3.90;;
38479;SDS011;62333;51.980;5.934;2023-07-31T10:32:42;11.07;;;4.18;;
38479;SDS011;62333;51.980;5.934;2023-07-31T10:35:09;5.30;;;3.17;;
38479;SDS011;62333;51.980;5.934;2023-07-31T10:37:36;5.40;;;4.10;;
38479;SDS011;62333;51.980;5.934;2023-07-31T10:40:05;7.30;;;4.88;;
38479;SDS011;62333;51.980;5.934;2023-07-31T10:42:45;6.75;;;3.70;;
38479;SDS011;62333;51.980;5.934;2023-07-31T10:45:24;4.55;;;3.15;;
38479;SDS011;62333;51.980;5.934;2023-07-31T10:48:03;5.68;;;2.47;;
38479;SDS011;62333;51.980;5.934;2023-07-31T10:50:30;5.90;;;3.17;;
38479;SDS011;62333;51.980;5.934;2023-07-31T10:53:23;7.70;;;3.42;;
38479;SDS011;62333;51.980;5.934;2023-07-31T10:55:50;5.60;;;3.47;;
38479;SDS011;62333;51.980;5.934;2023-07-31T10:58:17;6.68;;;2.88;;
38479;SDS011;62333;51.980;5.934;2023-07-31T11:00:45;6.72;;;3.90;;
38479;SDS011;62333;51.980;5.934;2023-07-31T11:03:13;4.72;;;3.00;;
38479;SDS011;62333;51.980;5.934;2023-07-31T11:05:47;8.95;;;4.22;;
38479;SDS011;62333;51.980;5.934;2023-07-31T11:08:22;6.63;;;3.60;;
38479;SDS011;62333;51.980;5.934;2023-07-31T11:11:04;7.90;;;2.97;;
38479;SDS011;62333;51.980;5.934;2023-07-31T11:13:32;4.13;;;2.45;;
38479;SDS011;62333;51.980;5.934;2023-07-31T11:15:59;5.80;;;2.97;;
38479;SDS011;62333;51.980;5.934;2023-07-31T11:18:25;5.45;;;3.13;;
38479;SDS011;62333;51.980;5.934;2023-07-31T11:20:52;4.80;;;3.60;;
38479;SDS011;62333;51.980;5.934;2023-07-31T11:23:18;5.10;;;2.90;;
38479;SDS011;62333;51.980;5.934;2023-07-31T11:25:44;5.40;;;2.85;;
38479;SDS011;62333;51.980;5.934;2023-07-31T11:28:12;5.28;;;2.42;;
38479;SDS011;62333;51.980;5.934;2023-07-31T11:30:39;9.13;;;3.17;;
38479;SDS011;62333;51.980;5.934;2023-07-31T11:33:06;7.82;;;3.53;;
38479;SDS011;62333;51.980;5.934;2023-07-31T11:35:34;5.15;;;3.00;;
38479;SDS011;62333;51.980;5.934;2023-07-31T11:38:01;5.28;;;2.90;;
38479;SDS011;62333;51.980;5.934;2023-07-31T11:40:27;5.20;;;4.05;;
38479;SDS011;62333;51.980;5.934;2023-07-31T11:42:57;6.15;;;3.10;;
38479;SDS011;62333;51.980;5.934;2023-07-31T11:45:27;6.07;;;3.08;;
38479;SDS011;62333;51.980;5.934;2023-07-31T11:47:56;4.38;;;2.92;;
38479;SDS011;62333;51.980;5.934;2023-07-31T11:50:22;5.88;;;3.78;;
38479;SDS011;62333;51.980;5.934;2023-07-31T11:52:57;6.32;;;2.55;;
38479;SDS011;62333;51.980;5.934;2023-07-31T11:55:25;4.75;;;2.50;;
38479;SDS011;62333;51.980;5.934;2023-07-31T11:57:52;4.00;;;2.47;;
38479;SDS011;62333;51.980;5.934;2023-07-31T12:00:19;5.05;;;2.60;;
38479;SDS011;62333;51.980;5.934;2023-07-31T12:02:45;3.40;;;1.77;;
38479;SDS011;62333;51.980;5.934;2023-07-31T12:05:14;5.55;;;3.15;;
38479;SDS011;62333;51.980;5.934;2023-07-31T12:07:46;5.82;;;2.22;;
38479;SDS011;62333;51.980;5.934;2023-07-31T12:10:26;3.55;;;1.33;;
38479;SDS011;62333;51.980;5.934;2023-07-31T12:12:59;6.10;;;2.35;;
38479;SDS011;62333;51.980;5.934;2023-07-31T12:15:40;2.70;;;1.92;;
38479;SDS011;62333;51.980;5.934;2023-07-31T12:18:07;3.95;;;2.50;;
38479;SDS011;62333;51.980;5.934;2023-07-31T12:20:44;4.35;;;1.73;;
38479;SDS011;62333;51.980;5.934;2023-07-31T12:23:14;7.47;;;2.47;;
38479;SDS011;62333;51.980;5.934;2023-07-31T12:28:46;3.78;;;1.90;;
38479;SDS011;62333;51.980;5.934;2023-07-31T12:31:17;4.40;;;1.70;;
38479;SDS011;62333;51.980;5.934;2023-07-31T12:33:44;5.60;;;2.63;;
38479;SDS011;62333;51.980;5.934;2023-07-31T12:38:43;3.83;;;1.35;;
38479;SDS011;62333;51.980;5.934;2023-07-31T12:41:09;6.03;;;2.13;;
38479;SDS011;62333;51.980;5.934;2023-07-31T12:43:35;6.47;;;4.03;;
38479;SDS011;62333;51.980;5.934;2023-07-31T12:46:02;4.40;;;2.45;;
38479;SDS011;62333;51.980;5.934;2023-07-31T12:48:28;4.03;;;2.15;;
38479;SDS011;62333;51.980;5.934;2023-07-31T12:50:54;4.00;;;2.38;;
38479;SDS011;62333;51.980;5.934;2023-07-31T12:53:19;7.20;;;2.63;;
38479;SDS011;62333;51.980;5.934;2023-07-31T12:55:45;4.55;;;3.20;;
38479;SDS011;62333;51.980;5.934;2023-07-31T12:58:11;5.63;;;2.95;;
38479;SDS011;62333;51.980;5.934;2023-07-31T13:00:37;5.97;;;3.10;;
38479;SDS011;62333;51.980;5.934;2023-07-31T13:03:03;6.40;;;2.60;;
38479;SDS011;62333;51.980;5.934;2023-07-31T13:05:28;6.30;;;2.97;;
38479;SDS011;62333;51.980;5.934;2023-07-31T13:07:54;5.85;;;3.63;;
38479;SDS011;62333;51.980;5.934;2023-07-31T13:10:22;4.88;;;2.88;;
38479;SDS011;62333;51.980;5.934;2023-07-31T13:12:48;4.75;;;2.70;;
38479;SDS011;62333;51.980;5.934;2023-07-31T13:15:15;6.30;;;3.45;;
38479;SDS011;62333;51.980;5.934;2023-07-31T13:17:41;5.68;;;3.38;;
38479;SDS011;62333;51.980;5.934;2023-07-31T13:20:07;5.88;;;3.00;;
38479;SDS011;62333;51.980;5.934;2023-07-31T13:22:33;4.50;;;2.92;;
38479;SDS011;62333;51.980;5.934;2023-07-31T13:24:58;4.03;;;2.42;;
38479;SDS011;62333;51.980;5.934;2023-07-31T13:27:24;4.53;;;2.67;;
38479;SDS011;62333;51.980;5.934;2023-07-31T13:29:51;5.93;;;2.88;;
38479;SDS011;62333;51.980;5.934;2023-07-31T13:32:17;4.70;;;2.83;;
38479;SDS011;62333;51.980;5.934;2023-07-31T13:34:44;4.90;;;3.05;;
38479;SDS011;62333;51.980;5.934;2023-07-31T13:37:10;4.22;;;2.83;;
38479;SDS011;62333;51.980;5.934;2023-07-31T13:39:36;4.47;;;2.50;;
38479;SDS011;62333;51.980;5.934;2023-07-31T13:42:03;3.83;;;2.45;;
38479;SDS011;62333;51.980;5.934;2023-07-31T13:44:31;4.75;;;2.08;;
38479;SDS011;62333;51.980;5.934;2023-07-31T13:46:57;5.75;;;3.03;;
38479;SDS011;62333;51.980;5.934;2023-07-31T13:49:23;2.70;;;1.15;;
38479;SDS011;62333;51.980;5.934;2023-07-31T13:51:48;5.18;;;2.78;;
38479;SDS011;62333;51.980;5.934;2023-07-31T13:54:14;3.20;;;1.75;;
38479;SDS011;62333;51.980;5.934;2023-07-31T13:56:40;4.90;;;2.33;;
38479;SDS011;62333;51.980;5.934;2023-07-31T13:59:06;4.53;;;2.53;;
38479;SDS011;62333;51.980;5.934;2023-07-31T14:01:32;4.30;;;2.05;;
38479;SDS011;62333;51.980;5.934;2023-07-31T14:03:57;4.90;;;2.22;;
38479;SDS011;62333;51.980;5.934;2023-07-31T14:06:23;3.30;;;2.10;;
38479;SDS011;62333;51.980;5.934;2023-07-31T14:08:49;4.63;;;2.45;;
38479;SDS011;62333;51.980;5.934;2023-07-31T14:11:15;5.80;;;2.78;;
38479;SDS011;62333;51.980;5.934;2023-07-31T14:13:40;4.65;;;2.67;;
38479;SDS011;62333;51.980;5.934;2023-07-31T14:16:06;6.18;;;3.10;;
38479;SDS011;62333;51.980;5.934;2023-07-31T14:18:32;5.82;;;3.65;;
38479;SDS011;62333;51.980;5.934;2023-07-31T14:20:57;5.03;;;2.78;;
38479;SDS011;62333;51.980;5.934;2023-07-31T14:23:23;3.90;;;2.25;;
38479;SDS011;62333;51.980;5.934;2023-07-31T14:25:49;7.60;;;2.65;;
38479;SDS011;62333;51.980;5.934;2023-07-31T14:28:14;5.63;;;2.00;;
38479;SDS011;62333;51.980;5.934;2023-07-31T14:30:40;5.72;;;2.85;;
38479;SDS011;62333;51.980;5.934;2023-07-31T14:33:06;6.70;;;2.58;;
38479;SDS011;62333;51.980;5.934;2023-07-31T14:35:32;4.38;;;2.30;;
38479;SDS011;62333;51.980;5.934;2023-07-31T14:37:57;4.95;;;2.58;;
38479;SDS011;62333;51.980;5.934;2023-07-31T14:40:23;7.13;;;3.63;;
38479;SDS011;62333;51.980;5.934;2023-07-31T14:42:48;6.75;;;4.00;;
38479;SDS011;62333;51.980;5.934;2023-07-31T14:45:14;7.82;;;3.53;;
38479;SDS011;62333;51.980;5.934;2023-07-31T14:47:40;5.28;;;2.30;;
38479;SDS011;62333;51.980;5.934;2023-07-31T14:50:05;6.28;;;1.83;;
38479;SDS011;62333;51.980;5.934;2023-07-31T14:52:31;3.72;;;2.35;;
38479;SDS011;62333;51.980;5.934;2023-07-31T14:54:57;7.35;;;2.88;;
38479;SDS011;62333;51.980;5.934;2023-07-31T14:57:23;6.15;;;3.05;;